createdAt,value
2019-02-24T00:04:54.388Z,-2.91
2019-02-24T00:09:57.370Z,-2.86
2019-02-24T00:15:00.353Z,-3.00
2019-02-24T00:20:03.412Z,-3.09
2019-02-24T00:25:06.404Z,-3.16
2019-02-24T00:30:09.384Z,-3.14
2019-02-24T00:35:12.339Z,-3.10
2019-02-24T00:40:15.385Z,-3.14
2019-02-24T00:45:18.375Z,-3.09
2019-02-24T00:50:21.593Z,-2.76
2019-02-24T00:55:24.569Z,-2.91
2019-02-24T01:00:27.704Z,-2.86
2019-02-24T01:05:31.010Z,-2.77
2019-02-24T01:10:33.958Z,-2.43
2019-02-24T01:15:36.955Z,-2.45
2019-02-24T01:20:39.976Z,-2.17
2019-02-24T01:25:42.966Z,-2.42
2019-02-24T01:30:46.013Z,-2.24
2019-02-24T01:35:49.180Z,-2.35
2019-02-24T01:40:52.215Z,-2.58
2019-02-24T01:45:55.718Z,-2.41
2019-02-24T01:50:58.629Z,-3.00
2019-02-24T01:56:01.740Z,-2.87
2019-02-24T02:01:04.721Z,-3.09
2019-02-24T02:06:07.929Z,-3.05
2019-02-24T02:11:11.113Z,-3.07
2019-02-24T02:16:14.376Z,-3.04
2019-02-24T02:21:17.558Z,-3.08
2019-02-24T02:26:20.703Z,-3.14
2019-02-24T02:31:23.686Z,-2.99
2019-02-24T02:36:26.715Z,-3.16
2019-02-24T02:41:30.200Z,-2.91
2019-02-24T02:46:33.205Z,-2.88
2019-02-24T02:51:36.176Z,-2.98
2019-02-24T02:56:39.307Z,-2.88
2019-02-24T03:01:42.410Z,-3.10
2019-02-24T03:06:57.684Z,-3.05
2019-02-24T03:12:00.977Z,-2.82
2019-02-24T03:17:04.117Z,-3.01
2019-02-24T03:22:07.509Z,-2.77
2019-02-24T03:27:10.519Z,-2.74
2019-02-24T03:32:13.469Z,-2.72
2019-02-24T03:37:16.460Z,-2.70
2019-02-24T03:42:19.430Z,-2.98
2019-02-24T03:47:22.566Z,-3.05
2019-02-24T03:52:25.602Z,-2.95
2019-02-24T03:57:28.662Z,-2.88
2019-02-24T04:02:31.822Z,-2.77
2019-02-24T04:07:34.951Z,-2.72
2019-02-24T04:12:37.933Z,-2.66
2019-02-24T04:17:41.161Z,-2.82
2019-02-24T04:22:44.471Z,-2.88
2019-02-24T04:27:47.859Z,-2.77
2019-02-24T04:32:50.967Z,-2.93
2019-02-24T04:37:53.976Z,-2.64
2019-02-24T04:42:56.903Z,-2.76
2019-02-24T04:47:59.953Z,-2.62
2019-02-24T04:53:05.678Z,-2.65
2019-02-24T04:58:08.711Z,-2.45
2019-02-24T05:03:11.689Z,-2.56
2019-02-24T05:08:15.257Z,-2.53
2019-02-24T05:13:18.259Z,-2.42
2019-02-24T05:18:21.369Z,-2.41
2019-02-24T05:23:24.322Z,-2.33
2019-02-24T05:28:27.322Z,-2.30
2019-02-24T05:33:30.498Z,-2.54
2019-02-24T05:38:33.432Z,-2.37
2019-02-24T05:43:36.617Z,-2.36
2019-02-24T05:48:39.965Z,-2.49
2019-02-24T05:53:43.188Z,-2.65
2019-02-24T05:58:46.166Z,-2.48
2019-02-24T06:03:49.475Z,-2.37
2019-02-24T06:08:52.526Z,-2.50
2019-02-24T06:13:55.585Z,-2.43
2019-02-24T06:18:58.697Z,-2.19
2019-02-24T06:24:01.664Z,-2.35
2019-02-24T06:29:04.643Z,-2.26
2019-02-24T06:34:07.789Z,-2.30
2019-02-24T06:39:11.065Z,-2.03
2019-02-24T06:44:14.015Z,-2.10
2019-02-24T06:49:17.082Z,-1.82
2019-02-24T06:54:20.092Z,-1.90
2019-02-24T06:59:23.439Z,-1.76
2019-02-24T07:04:26.412Z,-1.51
2019-02-24T07:09:29.395Z,-1.77
2019-02-24T07:14:32.488Z,-1.42
2019-02-24T07:19:35.420Z,-1.69
2019-02-24T07:24:38.595Z,-1.62
2019-02-24T07:29:41.686Z,-1.57
2019-02-24T07:34:44.878Z,-1.69
2019-02-24T07:39:48.077Z,-1.67
2019-02-24T07:44:51.176Z,-1.70
2019-02-24T07:49:54.265Z,-1.67
2019-02-24T07:54:57.233Z,-1.64
2019-02-24T08:00:00.358Z,-1.59
2019-02-24T08:05:03.625Z,-1.43
2019-02-24T08:10:07.274Z,-1.02
2019-02-24T08:15:10.367Z,-1.30
2019-02-24T08:20:13.325Z,-1.51
2019-02-24T08:25:16.270Z,-1.27
2019-02-24T08:30:19.525Z,-1.05
2019-02-24T08:35:22.568Z,-1.07
2019-02-24T08:40:25.609Z,-1.14
2019-02-24T08:45:28.591Z,-1.10
2019-02-24T08:50:31.685Z,-1.05
2019-02-24T08:55:34.627Z,-1.15
2019-02-24T09:00:37.858Z,-1.18
2019-02-24T09:05:40.944Z,-1.13
2019-02-24T09:10:44.005Z,-1.13
2019-02-24T09:15:46.956Z,-1.18
2019-02-24T09:20:50.048Z,-1.02
2019-02-24T09:25:53.065Z,-1.01
2019-02-24T09:31:00.874Z,-0.79
2019-02-24T09:36:01.331Z,-0.73
2019-02-24T09:41:04.565Z,-0.59
2019-02-24T09:46:07.627Z,-0.60
2019-02-24T09:51:10.593Z,-0.82
2019-02-24T09:56:13.524Z,-0.60
2019-02-24T10:01:16.488Z,-0.55
2019-02-24T10:06:19.477Z,-0.29
2019-02-24T10:11:22.468Z,-0.14
2019-02-24T10:16:25.559Z,-0.24
2019-02-24T10:21:28.622Z,-0.31
2019-02-24T10:26:31.722Z,-0.31
2019-02-24T10:31:34.679Z,-0.14
2019-02-24T10:36:37.902Z,-0.15
2019-02-24T10:41:40.849Z,-0.17
2019-02-24T10:46:44.023Z,-0.11
2019-02-24T10:51:47.136Z,-0.23
2019-02-24T10:56:50.102Z,-0.10
2019-02-24T11:01:53.282Z,0.08
2019-02-24T11:06:56.287Z,0.14
2019-02-24T11:11:59.354Z,0.28
2019-02-24T11:17:02.398Z,0.23
2019-02-24T11:22:05.470Z,0.02
2019-02-24T11:27:08.545Z,0.14
2019-02-24T11:32:11.678Z,0.62
2019-02-24T11:37:14.761Z,0.54
2019-02-24T11:42:17.730Z,0.38
2019-02-24T11:47:20.762Z,0.38
2019-02-24T11:52:23.720Z,0.53
2019-02-24T11:57:27.091Z,0.65
2019-02-24T12:02:34.444Z,0.43
2019-02-24T12:07:35.192Z,0.39
2019-02-24T12:12:38.283Z,0.61
2019-02-24T12:17:41.312Z,0.69
2019-02-24T12:22:44.707Z,0.72
2019-02-24T12:27:47.698Z,0.54
2019-02-24T12:32:50.977Z,0.68
2019-02-24T12:37:53.936Z,0.77
2019-02-24T12:42:57.104Z,0.86
2019-02-24T12:48:00.439Z,0.97
2019-02-24T12:53:03.787Z,1.39
2019-02-24T12:58:07.523Z,1.78
2019-02-24T13:03:10.700Z,1.82
2019-02-24T13:08:13.672Z,1.72
2019-02-24T13:13:16.618Z,1.82
2019-02-24T13:18:19.601Z,2.14
2019-02-24T13:23:22.617Z,1.92
2019-02-24T13:28:25.614Z,2.00
2019-02-24T13:33:28.872Z,2.04
2019-02-24T13:38:31.848Z,1.91
2019-02-24T13:43:34.889Z,1.86
2019-02-24T13:48:38.107Z,2.10
2019-02-24T13:53:41.382Z,2.22
2019-02-24T13:58:44.530Z,2.29
2019-02-24T14:03:47.590Z,2.34
2019-02-24T14:08:50.620Z,2.39
2019-02-24T14:13:53.595Z,2.47
2019-02-24T14:18:56.674Z,2.55
2019-02-24T14:23:59.718Z,2.56
2019-02-24T14:29:02.706Z,2.56
2019-02-24T14:34:06.222Z,2.46
2019-02-24T14:39:09.247Z,2.50
2019-02-24T14:44:12.621Z,2.38
2019-02-24T14:49:15.659Z,2.22
2019-02-24T14:54:18.672Z,2.23
2019-02-24T14:59:22.186Z,2.19
2019-02-24T15:04:25.628Z,2.16
2019-02-24T15:09:28.641Z,2.13
2019-02-24T15:14:31.723Z,2.14
2019-02-24T15:19:35.150Z,2.10
2019-02-24T15:24:38.247Z,2.05
2019-02-24T15:29:41.443Z,2.07
2019-02-24T15:34:44.466Z,2.01
2019-02-24T15:39:47.513Z,1.93
2019-02-24T15:44:50.500Z,1.91
2019-02-24T15:49:53.604Z,1.84
2019-02-24T15:54:56.866Z,1.84
2019-02-24T16:00:00.224Z,1.89
2019-02-24T16:05:03.930Z,1.95
2019-02-24T16:10:10.009Z,1.91
2019-02-24T16:15:14.474Z,1.87
2019-02-24T16:20:21.559Z,1.90
2019-02-24T16:25:24.587Z,1.80
2019-02-24T16:30:27.829Z,1.75
2019-02-24T16:35:30.957Z,1.65
2019-02-24T16:40:33.961Z,1.63
2019-02-24T16:45:37.373Z,1.68
2019-02-24T16:50:40.454Z,1.64
2019-02-24T16:55:43.574Z,1.62
2019-02-24T17:00:46.555Z,1.53
2019-02-24T17:05:49.758Z,1.64
2019-02-24T17:10:52.720Z,1.63
2019-02-24T17:15:56.001Z,1.49
2019-02-24T17:20:59.089Z,1.39
2019-02-24T17:26:02.088Z,1.31
2019-02-24T17:31:07.017Z,1.30
2019-02-24T17:36:10.361Z,1.41
2019-02-24T17:41:13.436Z,1.27
2019-02-24T17:46:16.955Z,1.33
2019-02-24T17:51:21.548Z,1.38
2019-02-24T17:56:25.022Z,1.55
2019-02-24T18:01:28.236Z,1.37
2019-02-24T18:06:31.471Z,1.42
2019-02-24T18:11:34.488Z,1.40
2019-02-24T18:16:37.544Z,1.36
2019-02-24T18:21:40.667Z,1.36
2019-02-24T18:26:43.796Z,1.36
2019-02-24T18:31:46.796Z,1.33
2019-02-24T18:36:50.129Z,1.31
2019-02-24T18:41:53.195Z,1.24
2019-02-24T18:46:56.264Z,1.27
2019-02-24T18:51:59.411Z,1.34
2019-02-24T18:57:02.428Z,1.37
2019-02-24T19:02:05.519Z,1.23
2019-02-24T19:07:08.640Z,1.21
2019-02-24T19:12:11.716Z,1.28
2019-02-24T19:17:14.879Z,1.49
2019-02-24T19:22:17.956Z,1.25
2019-02-24T19:27:20.903Z,1.16
2019-02-24T19:32:24.054Z,1.19
2019-02-24T19:37:27.043Z,1.18
2019-02-24T19:42:30.178Z,1.21
2019-02-24T19:47:33.156Z,1.14
2019-02-24T19:52:36.163Z,1.13
2019-02-24T19:57:39.333Z,1.04
2019-02-24T20:02:42.545Z,0.98
2019-02-24T20:07:45.744Z,1.00
2019-02-24T20:12:48.734Z,1.03
2019-02-24T20:17:51.794Z,0.97
2019-02-24T20:22:54.793Z,0.96
2019-02-24T20:27:58.517Z,1.00
2019-02-24T20:33:01.642Z,1.04
2019-02-24T20:38:05.386Z,1.03
2019-02-24T20:43:08.537Z,0.99
2019-02-24T20:48:11.527Z,0.98
2019-02-24T20:53:14.595Z,0.82
2019-02-24T20:58:17.999Z,0.86
2019-02-24T21:03:22.573Z,0.72
2019-02-24T21:08:25.806Z,0.67
2019-02-24T21:13:29.176Z,0.77
2019-02-24T21:18:32.406Z,0.71
2019-02-24T21:23:35.488Z,0.82
2019-02-24T21:28:38.617Z,0.86
2019-02-24T21:33:41.631Z,0.84
2019-02-24T21:38:44.794Z,1.01
2019-02-24T21:43:47.885Z,1.17
2019-02-24T21:48:50.937Z,1.29
2019-02-24T21:53:54.915Z,1.32
2019-02-24T21:58:57.921Z,1.32
2019-02-24T22:04:00.932Z,1.40
2019-02-24T22:09:06.601Z,1.40
2019-02-24T22:14:09.790Z,1.29
2019-02-24T22:19:12.802Z,1.34
2019-02-24T22:24:15.978Z,1.49
2019-02-24T22:29:18.972Z,1.55
2019-02-24T22:34:21.963Z,1.67
2019-02-24T22:39:25.008Z,1.75
2019-02-24T22:44:28.117Z,1.78
2019-02-24T22:49:31.226Z,1.73
2019-02-24T22:54:34.245Z,1.80
2019-02-24T22:59:37.470Z,1.89
2019-02-24T23:04:40.744Z,1.77
2019-02-24T23:09:43.960Z,1.78
2019-02-24T23:14:46.957Z,1.52
2019-02-24T23:19:50.065Z,1.62
2019-02-24T23:24:53.040Z,1.85
2019-02-24T23:29:56.068Z,2.04
2019-02-24T23:34:59.133Z,2.11
2019-02-24T23:40:02.450Z,2.19
2019-02-24T23:45:10.180Z,2.32
2019-02-24T23:50:11.093Z,2.38
2019-02-24T23:55:14.069Z,2.43
